createdAt,value
2023-03-07T00:00:19.950Z,0
2023-03-07T00:01:36.236Z,0
2023-03-07T00:02:52.533Z,0
2023-03-07T00:04:08.835Z,0
2023-03-07T00:05:25.115Z,0
2023-03-07T00:06:40.439Z,0
2023-03-07T00:07:56.720Z,0
2023-03-07T00:09:13.025Z,0
2023-03-07T00:10:29.311Z,0
2023-03-07T00:11:45.600Z,0
2023-03-07T00:13:01.903Z,0
2023-03-07T00:14:18.201Z,0
2023-03-07T00:15:34.492Z,0
2023-03-07T00:16:50.782Z,0
2023-03-07T00:18:07.074Z,0
2023-03-07T00:19:23.372Z,0
2023-03-07T00:20:39.665Z,0
2023-03-07T00:21:55.960Z,0
2023-03-07T00:23:11.263Z,0
2023-03-07T00:24:27.565Z,0
2023-03-07T00:25:43.859Z,0
2023-03-07T00:27:00.154Z,0
2023-03-07T00:28:16.446Z,0
2023-03-07T00:29:32.733Z,0
2023-03-07T00:32:05.321Z,0
2023-03-07T00:33:21.623Z,0
2023-03-07T00:34:37.921Z,0
2023-03-07T00:35:54.211Z,0
2023-03-07T00:37:10.515Z,0
2023-03-07T00:38:26.809Z,0
2023-03-07T00:39:42.110Z,0
2023-03-07T00:40:58.410Z,0
2023-03-07T00:42:14.707Z,0
2023-03-07T00:43:30.997Z,0
2023-03-07T00:44:47.299Z,0
2023-03-07T00:46:03.591Z,0
2023-03-07T00:47:19.865Z,0
2023-03-07T00:48:36.178Z,0
2023-03-07T00:49:52.473Z,0
2023-03-07T00:51:08.750Z,0
2023-03-07T00:52:25.049Z,0
2023-03-07T00:53:41.349Z,0
2023-03-07T00:54:57.643Z,0
2023-03-07T00:56:12.954Z,0
2023-03-07T00:57:29.238Z,0
2023-03-07T00:58:45.547Z,0
2023-03-07T01:00:01.827Z,0
2023-03-07T01:01:18.122Z,0
2023-03-07T01:02:34.424Z,0
2023-03-07T01:03:50.717Z,0
2023-03-07T01:05:07.015Z,0
2023-03-07T01:06:23.301Z,0
2023-03-07T01:07:39.593Z,0
2023-03-07T01:08:55.892Z,0
2023-03-07T01:10:12.193Z,0
2023-03-07T01:11:28.483Z,0
2023-03-07T01:12:43.781Z,0
2023-03-07T01:14:00.082Z,0
2023-03-07T01:15:16.373Z,0
2023-03-07T01:16:32.659Z,0
2023-03-07T01:17:48.968Z,0
2023-03-07T01:19:05.258Z,0
2023-03-07T01:20:21.550Z,0
2023-03-07T01:21:37.851Z,0
2023-03-07T01:22:54.143Z,0
2023-03-07T01:24:10.428Z,0
2023-03-07T01:25:26.740Z,0
2023-03-07T01:26:43.013Z,0
2023-03-07T01:27:59.310Z,0
2023-03-07T01:29:14.631Z,0
2023-03-07T01:30:30.926Z,0
2023-03-07T01:31:47.215Z,0
2023-03-07T01:33:03.499Z,0
2023-03-07T01:34:19.804Z,0
2023-03-07T01:35:36.096Z,0
2023-03-07T01:36:52.382Z,0
2023-03-07T01:38:08.692Z,0
2023-03-07T01:39:24.971Z,0
2023-03-07T01:40:41.266Z,0
2023-03-07T01:41:57.570Z,0
2023-03-07T01:43:13.867Z,0
2023-03-07T01:44:30.155Z,0
2023-03-07T01:45:45.462Z,0
2023-03-07T01:47:01.775Z,0
2023-03-07T01:48:18.062Z,0
2023-03-07T01:49:34.360Z,0
2023-03-07T01:50:50.646Z,0
2023-03-07T01:52:06.934Z,0
2023-03-07T01:53:23.226Z,0
2023-03-07T01:54:39.519Z,0
2023-03-07T01:55:55.822Z,0
2023-03-07T01:57:12.106Z,0
2023-03-07T01:58:28.403Z,0
2023-03-07T01:59:44.699Z,0
2023-03-07T02:01:00.987Z,0
2023-03-07T02:02:16.294Z,0
2023-03-07T02:03:32.590Z,0
2023-03-07T02:04:48.897Z,0
2023-03-07T02:06:05.186Z,0
2023-03-07T02:07:21.473Z,0
2023-03-07T02:08:37.773Z,0
2023-03-07T02:09:54.086Z,0
2023-03-07T02:11:10.367Z,0
2023-03-07T02:12:26.645Z,0
2023-03-07T02:13:42.948Z,0
2023-03-07T02:14:59.253Z,0
2023-03-07T02:16:15.550Z,0
2023-03-07T02:17:31.828Z,0
2023-03-07T02:18:47.147Z,0
2023-03-07T02:20:03.444Z,0
2023-03-07T02:21:19.729Z,0
2023-03-07T02:22:36.025Z,0
2023-03-07T02:23:52.318Z,0
2023-03-07T02:25:08.618Z,0
2023-03-07T02:26:24.900Z,0
2023-03-07T02:27:41.202Z,0
2023-03-07T02:28:57.496Z,0
2023-03-07T02:30:13.789Z,0
2023-03-07T02:31:30.080Z,0
2023-03-07T02:32:46.375Z,0
2023-03-07T02:34:02.671Z,0
2023-03-07T02:35:17.987Z,0
2023-03-07T02:36:34.269Z,0
2023-03-07T02:37:50.566Z,0
2023-03-07T02:39:06.878Z,0
2023-03-07T02:40:23.161Z,0
2023-03-07T02:41:39.460Z,0
2023-03-07T02:42:55.746Z,0
2023-03-07T02:44:12.031Z,0
2023-03-07T02:45:28.322Z,0
2023-03-07T02:46:44.618Z,0
2023-03-07T02:48:00.923Z,0
2023-03-07T02:49:17.217Z,0
2023-03-07T02:50:33.500Z,0
2023-03-07T02:51:48.819Z,0
2023-03-07T02:53:05.121Z,0
2023-03-07T02:54:21.409Z,0
2023-03-07T02:55:37.707Z,0
2023-03-07T02:56:53.997Z,0
2023-03-07T02:58:10.293Z,0
2023-03-07T02:59:25.598Z,0
2023-03-07T03:00:41.895Z,0
2023-03-07T03:01:58.181Z,0
2023-03-07T03:03:14.492Z,0
2023-03-07T03:04:30.777Z,0
2023-03-07T03:05:47.064Z,0
2023-03-07T03:07:03.376Z,0
2023-03-07T03:08:19.667Z,0
2023-03-07T03:09:35.964Z,0
2023-03-07T03:10:52.249Z,0
2023-03-07T03:12:08.542Z,0
2023-03-07T03:13:24.842Z,0
2023-03-07T03:14:41.130Z,0
2023-03-07T03:17:12.729Z,0
2023-03-07T03:18:29.036Z,0
2023-03-07T03:19:45.317Z,0
2023-03-07T03:21:01.620Z,0
2023-03-07T03:22:17.908Z,0
2023-03-07T03:23:34.213Z,0
2023-03-07T03:24:50.491Z,0
2023-03-07T03:26:06.793Z,0
2023-03-07T03:27:23.094Z,0
2023-03-07T03:28:39.385Z,0
2023-03-07T03:29:55.671Z,0
2023-03-07T03:31:11.980Z,0
2023-03-07T03:32:27.282Z,0
2023-03-07T03:33:43.579Z,0
2023-03-07T03:34:59.872Z,0
2023-03-07T03:36:16.167Z,0
2023-03-07T03:37:32.450Z,0
2023-03-07T03:38:48.748Z,0
2023-03-07T03:40:05.041Z,0
2023-03-07T03:41:21.329Z,0
2023-03-07T03:42:37.638Z,0
2023-03-07T03:43:53.931Z,0
2023-03-07T03:45:10.225Z,0
2023-03-07T03:46:26.512Z,0
2023-03-07T03:47:42.818Z,0
2023-03-07T03:48:58.118Z,0
2023-03-07T03:50:14.412Z,0
2023-03-07T03:51:30.705Z,0
2023-03-07T03:52:47.002Z,0
2023-03-07T03:54:03.285Z,0
2023-03-07T03:55:19.595Z,0
2023-03-07T03:56:35.898Z,0
2023-03-07T03:57:52.174Z,0
2023-03-07T03:59:08.475Z,0
2023-03-07T04:00:24.773Z,0
2023-03-07T04:01:41.050Z,0
2023-03-07T04:02:57.362Z,0
2023-03-07T04:04:13.642Z,0
2023-03-07T04:05:28.965Z,0
2023-03-07T04:06:45.246Z,0
2023-03-07T04:08:01.539Z,0
2023-03-07T04:09:17.838Z,0
2023-03-07T04:10:34.123Z,0
2023-03-07T04:11:50.436Z,0
2023-03-07T04:13:06.710Z,0
2023-03-07T04:14:23.007Z,0
2023-03-07T04:15:39.309Z,0
2023-03-07T04:16:55.604Z,0
2023-03-07T04:18:11.905Z,0
2023-03-07T04:19:28.185Z,0
2023-03-07T04:20:44.485Z,0
2023-03-07T04:21:59.785Z,0
2023-03-07T04:23:16.094Z,0
2023-03-07T04:24:32.384Z,0
2023-03-07T04:25:48.668Z,0
2023-03-07T04:27:04.984Z,0
2023-03-07T04:28:21.254Z,0
2023-03-07T04:29:37.548Z,0
2023-03-07T04:30:53.843Z,0
2023-03-07T04:32:10.147Z,0
2023-03-07T04:33:26.439Z,0
2023-03-07T04:34:42.733Z,0
2023-03-07T04:35:59.035Z,0
2023-03-07T04:37:15.315Z,0
2023-03-07T04:38:30.642Z,0
2023-03-07T04:39:46.913Z,0
2023-03-07T04:41:03.223Z,0
2023-03-07T04:42:19.519Z,0
2023-03-07T04:43:35.805Z,0
2023-03-07T04:44:52.100Z,0
2023-03-07T04:46:08.389Z,0
2023-03-07T04:47:24.682Z,0
2023-03-07T04:48:40.986Z,0
2023-03-07T04:49:57.265Z,0
2023-03-07T04:51:13.568Z,0
2023-03-07T04:52:29.858Z,0
2023-03-07T04:53:46.148Z,0
2023-03-07T04:55:01.458Z,0
2023-03-07T04:56:17.760Z,0
2023-03-07T04:57:34.063Z,0
2023-03-07T04:58:50.357Z,0
2023-03-07T05:00:06.640Z,0
2023-03-07T05:01:22.933Z,0
2023-03-07T05:02:39.233Z,0
2023-03-07T05:03:55.516Z,0
2023-03-07T05:05:11.822Z,0
2023-03-07T05:06:28.114Z,0
2023-03-07T05:07:44.408Z,0
2023-03-07T05:09:00.715Z,0
2023-03-07T05:10:17.010Z,0
2023-03-07T05:11:32.301Z,0
2023-03-07T05:12:48.596Z,0
2023-03-07T05:14:04.898Z,0
2023-03-07T05:15:21.180Z,0
2023-03-07T05:16:37.484Z,0
2023-03-07T05:17:53.777Z,0
2023-03-07T05:19:10.077Z,0
2023-03-07T05:21:42.605Z,1
2023-03-07T05:22:58.897Z,0
2023-03-07T05:24:15.135Z,1
2023-03-07T05:25:31.384Z,1
2023-03-07T05:26:47.684Z,0
2023-03-07T05:28:02.987Z,0
2023-03-07T05:29:19.285Z,0
2023-03-07T05:30:35.542Z,1
2023-03-07T05:31:51.826Z,0
2023-03-07T05:33:08.114Z,0
2023-03-07T05:34:24.377Z,5
2023-03-07T05:35:40.612Z,5
2023-03-07T05:36:56.854Z,4
2023-03-07T05:38:13.085Z,5
2023-03-07T05:39:29.324Z,4
2023-03-07T05:40:45.578Z,2
2023-03-07T05:42:01.804Z,4
2023-03-07T05:43:18.058Z,4
2023-03-07T05:44:33.315Z,5
2023-03-07T05:45:49.556Z,9
2023-03-07T05:47:05.788Z,6
2023-03-07T05:48:22.034Z,7
2023-03-07T05:49:38.276Z,6
2023-03-07T05:50:54.508Z,9
2023-03-07T05:52:10.741Z,12
2023-03-07T05:53:26.994Z,14
2023-03-07T05:54:43.233Z,13
2023-03-07T05:55:59.469Z,8
2023-03-07T05:57:15.707Z,12
2023-03-07T05:58:31.000Z,12
2023-03-07T05:59:48.199Z,14
2023-03-07T06:01:03.451Z,12
2023-03-07T06:02:19.687Z,15
2023-03-07T06:03:35.935Z,17
2023-03-07T06:04:52.155Z,17
2023-03-07T06:06:08.396Z,16
2023-03-07T06:07:24.635Z,12
2023-03-07T06:08:40.876Z,9
2023-03-07T06:09:57.115Z,17
2023-03-07T06:11:13.368Z,27
2023-03-07T06:12:29.599Z,24
2023-03-07T06:13:45.847Z,31
2023-03-07T06:15:02.082Z,34
2023-03-07T06:16:18.323Z,39
2023-03-07T06:17:33.580Z,31
2023-03-07T06:18:49.811Z,30
2023-03-07T06:20:06.061Z,35
2023-03-07T06:21:22.295Z,40
2023-03-07T06:22:38.549Z,41
2023-03-07T06:23:54.770Z,43
2023-03-07T06:25:11.021Z,45
2023-03-07T06:26:27.257Z,50
2023-03-07T06:27:43.507Z,60
2023-03-07T06:28:59.747Z,55
2023-03-07T06:30:15.972Z,53
2023-03-07T06:31:32.220Z,56
2023-03-07T06:32:48.476Z,64
2023-03-07T06:34:03.710Z,64
2023-03-07T06:35:19.965Z,57
2023-03-07T06:36:36.199Z,68
2023-03-07T06:37:52.454Z,59
2023-03-07T06:39:08.679Z,61
2023-03-07T06:40:24.924Z,69
2023-03-07T06:41:41.156Z,70
2023-03-07T06:42:57.387Z,76
2023-03-07T06:44:13.642Z,87
2023-03-07T06:45:29.873Z,72
2023-03-07T06:46:46.106Z,75
2023-03-07T06:48:02.350Z,74
2023-03-07T06:49:18.587Z,93
2023-03-07T06:50:33.864Z,95
2023-03-07T06:51:50.085Z,105
2023-03-07T06:53:06.339Z,119
2023-03-07T06:54:22.568Z,120
2023-03-07T06:55:38.809Z,99
2023-03-07T06:56:55.056Z,96
2023-03-07T06:58:11.295Z,119
2023-03-07T06:59:27.535Z,126
2023-03-07T07:00:43.767Z,126
2023-03-07T07:02:00.011Z,95
2023-03-07T07:03:16.247Z,123
2023-03-07T07:04:32.495Z,101
2023-03-07T07:05:48.737Z,81
2023-03-07T07:07:03.990Z,77
2023-03-07T07:08:20.228Z,80
2023-03-07T07:09:36.465Z,109
2023-03-07T07:10:52.713Z,94
2023-03-07T07:12:08.935Z,99
2023-03-07T07:13:25.188Z,121
2023-03-07T07:14:40.441Z,122
2023-03-07T07:15:56.687Z,90
2023-03-07T07:17:12.932Z,84
2023-03-07T07:18:29.164Z,96
2023-03-07T07:19:45.400Z,82
2023-03-07T07:21:01.658Z,101
2023-03-07T07:22:17.879Z,120
2023-03-07T07:23:34.121Z,140
2023-03-07T07:24:50.369Z,156
2023-03-07T07:26:06.612Z,149
2023-03-07T07:27:22.845Z,143
2023-03-07T07:28:39.085Z,97
2023-03-07T07:29:55.334Z,108
2023-03-07T07:31:10.587Z,161
2023-03-07T07:32:26.839Z,171
2023-03-07T07:33:43.061Z,169
2023-03-07T07:34:59.305Z,155
2023-03-07T07:36:15.546Z,142
2023-03-07T07:37:31.788Z,140
2023-03-07T07:38:48.028Z,188
2023-03-07T07:40:04.271Z,186
2023-03-07T07:41:20.493Z,171
2023-03-07T07:42:36.747Z,157
2023-03-07T07:43:52.986Z,164
2023-03-07T07:45:09.222Z,170
2023-03-07T07:46:25.458Z,185
2023-03-07T07:47:40.727Z,196
2023-03-07T07:48:56.967Z,195
2023-03-07T07:50:13.209Z,179
2023-03-07T07:51:29.431Z,174
2023-03-07T07:52:45.680Z,203
2023-03-07T07:54:01.910Z,228
2023-03-07T07:55:18.153Z,231
2023-03-07T07:56:34.393Z,220
2023-03-07T07:57:50.635Z,224
2023-03-07T07:59:06.894Z,251
2023-03-07T08:00:23.117Z,264
2023-03-07T08:01:39.347Z,267
2023-03-07T08:02:55.600Z,276
2023-03-07T08:04:10.861Z,277
2023-03-07T08:05:27.088Z,304
2023-03-07T08:06:43.346Z,277
2023-03-07T08:07:59.577Z,310
2023-03-07T08:09:15.809Z,292
2023-03-07T08:10:32.048Z,295
2023-03-07T08:11:48.299Z,319
2023-03-07T08:13:04.540Z,339
2023-03-07T08:14:20.773Z,381
2023-03-07T08:15:37.009Z,340
2023-03-07T08:16:53.246Z,271
2023-03-07T08:18:09.482Z,280
2023-03-07T08:19:25.730Z,270
2023-03-07T08:20:40.980Z,324
2023-03-07T08:21:57.194Z,355
2023-03-07T08:23:13.464Z,423
2023-03-07T08:24:29.700Z,429
2023-03-07T08:25:45.951Z,405
2023-03-07T08:27:02.176Z,397
2023-03-07T08:28:18.432Z,381
2023-03-07T08:29:34.662Z,386
2023-03-07T08:30:50.900Z,294
2023-03-07T08:32:07.143Z,282
2023-03-07T08:33:23.394Z,302
2023-03-07T08:34:39.618Z,393
2023-03-07T08:35:55.857Z,468
2023-03-07T08:37:11.124Z,442
2023-03-07T08:38:27.364Z,390
2023-03-07T08:39:43.596Z,496
2023-03-07T08:40:59.845Z,477
2023-03-07T08:42:16.084Z,484
2023-03-07T08:43:32.318Z,563
2023-03-07T08:44:48.554Z,500
2023-03-07T08:46:04.800Z,506
2023-03-07T08:47:21.044Z,615
2023-03-07T08:48:37.275Z,657
2023-03-07T08:49:53.511Z,652
2023-03-07T08:51:09.759Z,678
2023-03-07T08:52:25.997Z,693
2023-03-07T08:53:41.262Z,722
2023-03-07T08:54:57.486Z,715
2023-03-07T08:56:13.743Z,812
2023-03-07T08:57:29.969Z,820
2023-03-07T08:58:46.220Z,782
2023-03-07T09:00:02.454Z,798
2023-03-07T09:01:18.682Z,687
2023-03-07T09:02:34.924Z,652
2023-03-07T09:03:51.169Z,697
2023-03-07T09:05:07.413Z,730
2023-03-07T09:06:23.642Z,752
2023-03-07T09:07:39.890Z,737
2023-03-07T09:08:56.121Z,649
2023-03-07T09:10:11.379Z,743
2023-03-07T09:11:27.636Z,831
2023-03-07T09:12:43.861Z,818
2023-03-07T09:14:00.103Z,822
2023-03-07T09:15:16.354Z,812
2023-03-07T09:16:32.581Z,751
2023-03-07T09:17:48.818Z,763
2023-03-07T09:19:05.071Z,804
2023-03-07T09:20:21.302Z,805
2023-03-07T09:21:37.553Z,865
2023-03-07T09:22:53.785Z,773
2023-03-07T09:24:10.017Z,703
2023-03-07T09:25:26.260Z,795
2023-03-07T09:26:41.508Z,747
2023-03-07T09:27:57.755Z,858
2023-03-07T09:29:14.000Z,922
2023-03-07T09:30:30.239Z,925
2023-03-07T09:31:46.482Z,974
2023-03-07T09:33:02.721Z,917
2023-03-07T09:34:18.947Z,849
2023-03-07T09:35:35.195Z,900
2023-03-07T09:36:51.424Z,884
2023-03-07T09:38:07.670Z,890
2023-03-07T09:39:23.904Z,747
2023-03-07T09:40:40.162Z,842
2023-03-07T09:41:56.383Z,865
2023-03-07T09:43:11.650Z,881
2023-03-07T09:44:27.889Z,811
2023-03-07T09:45:44.133Z,677
2023-03-07T09:47:00.357Z,658
2023-03-07T09:48:16.602Z,715
2023-03-07T09:49:32.851Z,724
2023-03-07T09:50:49.080Z,800
2023-03-07T09:52:05.324Z,702
2023-03-07T09:53:21.567Z,612
2023-03-07T09:54:37.796Z,657
2023-03-07T09:55:54.049Z,639
2023-03-07T09:57:10.293Z,672
2023-03-07T09:58:26.530Z,619
2023-03-07T09:59:41.769Z,539
2023-03-07T10:00:58.028Z,577
2023-03-07T10:02:14.253Z,555
2023-03-07T10:03:30.494Z,698
2023-03-07T10:04:46.747Z,721
2023-03-07T10:06:02.975Z,732
2023-03-07T10:07:19.223Z,656
2023-03-07T10:08:35.463Z,499
2023-03-07T10:09:51.700Z,530
2023-03-07T10:11:07.946Z,427
2023-03-07T10:12:24.177Z,469
2023-03-07T10:13:40.407Z,382
2023-03-07T10:14:56.648Z,382
2023-03-07T10:16:11.908Z,377
2023-03-07T10:17:28.158Z,372
2023-03-07T10:18:44.385Z,426
2023-03-07T10:20:00.627Z,414
2023-03-07T10:21:16.873Z,377
2023-03-07T10:22:33.108Z,427
2023-03-07T10:23:49.354Z,407
2023-03-07T10:25:05.597Z,362
2023-03-07T10:26:21.837Z,359
2023-03-07T10:27:38.060Z,545
2023-03-07T10:28:54.302Z,512
2023-03-07T10:30:10.541Z,605
2023-03-07T10:31:26.782Z,600
2023-03-07T10:32:42.047Z,422
2023-03-07T10:33:58.281Z,480
2023-03-07T10:35:14.520Z,511
2023-03-07T10:36:30.766Z,521
2023-03-07T10:37:47.014Z,498
2023-03-07T10:39:03.233Z,539
2023-03-07T10:40:19.474Z,574
2023-03-07T10:41:35.731Z,572
2023-03-07T10:42:51.956Z,468
2023-03-07T10:44:08.200Z,564
2023-03-07T10:45:24.443Z,448
2023-03-07T10:46:40.677Z,444
2023-03-07T10:47:56.911Z,460
2023-03-07T10:49:12.174Z,403
2023-03-07T10:50:28.416Z,494
2023-03-07T10:51:44.646Z,434
2023-03-07T10:53:00.898Z,435
2023-03-07T10:54:17.126Z,523
2023-03-07T10:55:33.378Z,504
2023-03-07T10:56:49.607Z,462
2023-03-07T10:58:05.849Z,477
2023-03-07T10:59:22.084Z,572
2023-03-07T11:00:38.340Z,390
2023-03-07T11:01:54.567Z,454
2023-03-07T11:03:10.806Z,492
2023-03-07T11:04:27.047Z,582
2023-03-07T11:05:42.308Z,482
2023-03-07T11:06:58.541Z,779
2023-03-07T11:08:14.790Z,524
2023-03-07T11:09:31.019Z,909
2023-03-07T11:10:47.263Z,837
2023-03-07T11:12:03.508Z,690
2023-03-07T11:13:19.747Z,542
2023-03-07T11:14:35.987Z,520
2023-03-07T11:15:52.226Z,457
2023-03-07T11:17:08.466Z,375
2023-03-07T11:18:24.706Z,364
2023-03-07T11:19:40.935Z,266
2023-03-07T11:20:57.191Z,425
2023-03-07T11:22:12.432Z,265
2023-03-07T11:23:28.685Z,453
2023-03-07T11:24:44.910Z,392
2023-03-07T11:26:01.159Z,430
2023-03-07T11:27:17.392Z,338
2023-03-07T11:28:33.650Z,352
2023-03-07T11:29:48.903Z,408
2023-03-07T11:31:05.128Z,641
2023-03-07T11:32:21.385Z,562
2023-03-07T11:33:37.611Z,962
2023-03-07T11:34:53.867Z,932
2023-03-07T11:36:10.087Z,650
2023-03-07T11:37:26.329Z,784
2023-03-07T11:38:42.577Z,660
2023-03-07T11:39:58.818Z,727
2023-03-07T11:41:15.048Z,1040
2023-03-07T11:42:31.288Z,1067
2023-03-07T11:43:47.543Z,1427
2023-03-07T11:45:03.765Z,649
2023-03-07T11:46:19.038Z,600
2023-03-07T11:47:35.267Z,756
2023-03-07T11:48:51.510Z,666
2023-03-07T11:50:07.754Z,663
2023-03-07T11:51:23.979Z,690
2023-03-07T11:52:40.220Z,926
2023-03-07T11:53:56.478Z,782
2023-03-07T11:55:12.712Z,785
2023-03-07T11:56:28.956Z,820
2023-03-07T11:57:45.179Z,544
2023-03-07T11:59:01.420Z,2553
2023-03-07T12:00:17.659Z,1129
2023-03-07T12:01:33.904Z,923
2023-03-07T12:02:49.160Z,851
2023-03-07T12:04:05.397Z,607
2023-03-07T12:05:21.644Z,679
2023-03-07T12:06:37.874Z,700
2023-03-07T12:07:54.121Z,348
2023-03-07T12:09:10.360Z,571
2023-03-07T12:10:26.605Z,1101
2023-03-07T12:11:42.833Z,524
2023-03-07T12:12:59.070Z,750
2023-03-07T12:14:15.316Z,883
2023-03-07T12:15:31.562Z,1341
2023-03-07T12:16:47.789Z,499
2023-03-07T12:18:04.032Z,2073
2023-03-07T12:19:19.297Z,1021
2023-03-07T12:20:35.525Z,666
2023-03-07T12:21:51.781Z,716
2023-03-07T12:23:08.001Z,769
2023-03-07T12:24:24.256Z,445
2023-03-07T12:25:40.483Z,973
2023-03-07T12:26:56.729Z,697
2023-03-07T12:28:12.977Z,636
2023-03-07T12:29:29.198Z,756
2023-03-07T12:30:45.447Z,692
2023-03-07T12:32:01.683Z,944
2023-03-07T12:33:17.922Z,597
2023-03-07T12:34:34.172Z,547
2023-03-07T12:35:49.416Z,514
2023-03-07T12:37:05.658Z,429
2023-03-07T12:38:21.894Z,443
2023-03-07T12:39:38.133Z,358
2023-03-07T12:40:54.375Z,375
2023-03-07T12:42:10.625Z,491
2023-03-07T12:43:26.867Z,394
2023-03-07T12:44:43.103Z,364
2023-03-07T12:45:59.347Z,314
2023-03-07T12:47:15.580Z,439
2023-03-07T12:48:31.810Z,367
2023-03-07T12:49:48.056Z,307
2023-03-07T12:51:04.310Z,268
2023-03-07T12:52:19.553Z,267
2023-03-07T12:53:35.791Z,296
2023-03-07T12:54:52.030Z,282
2023-03-07T12:56:08.264Z,245
2023-03-07T12:57:24.517Z,206
2023-03-07T12:58:40.000Z,185
2023-03-07T12:59:56.987Z,198
2023-03-07T13:01:13.229Z,242
2023-03-07T13:02:29.461Z,236
2023-03-07T13:03:45.702Z,251
2023-03-07T13:05:01.948Z,323
2023-03-07T13:06:18.191Z,318
2023-03-07T13:07:34.433Z,251
2023-03-07T13:08:49.687Z,259
2023-03-07T13:10:05.923Z,290
2023-03-07T13:11:22.159Z,316
2023-03-07T13:12:38.397Z,302
2023-03-07T13:13:54.652Z,262
2023-03-07T13:15:10.872Z,291
2023-03-07T13:16:27.120Z,334
2023-03-07T13:17:43.361Z,330
2023-03-07T13:18:59.594Z,316
2023-03-07T13:20:15.831Z,341
2023-03-07T13:21:32.087Z,306
2023-03-07T13:22:48.313Z,305
2023-03-07T13:24:04.564Z,299
2023-03-07T13:25:19.807Z,314
2023-03-07T13:26:36.048Z,315
2023-03-07T13:27:52.300Z,265
2023-03-07T13:29:08.541Z,263
2023-03-07T13:30:24.771Z,223
2023-03-07T13:31:41.009Z,309
2023-03-07T13:32:57.259Z,261
2023-03-07T13:34:13.494Z,239
2023-03-07T13:35:29.723Z,216
2023-03-07T13:36:45.972Z,273
2023-03-07T13:38:02.220Z,319
2023-03-07T13:39:18.452Z,366
2023-03-07T13:40:34.700Z,350
2023-03-07T13:41:49.943Z,350
2023-03-07T13:43:06.181Z,301
2023-03-07T13:44:22.418Z,439
2023-03-07T13:45:38.671Z,464
2023-03-07T13:46:54.910Z,423
2023-03-07T13:48:11.155Z,389
2023-03-07T13:49:27.390Z,396
2023-03-07T13:50:43.621Z,397
2023-03-07T13:51:59.874Z,424
2023-03-07T13:53:16.104Z,346
2023-03-07T13:54:32.333Z,290
2023-03-07T13:55:48.588Z,253
2023-03-07T13:57:04.813Z,264
2023-03-07T13:58:20.084Z,221
2023-03-07T13:59:36.318Z,217
2023-03-07T14:00:52.563Z,193
2023-03-07T14:02:08.805Z,176
2023-03-07T14:03:25.035Z,183
2023-03-07T14:04:41.278Z,177
2023-03-07T14:05:57.517Z,174
2023-03-07T14:07:13.758Z,143
2023-03-07T14:08:29.997Z,151
2023-03-07T14:09:46.231Z,161
2023-03-07T14:11:02.471Z,147
2023-03-07T14:12:18.711Z,156
2023-03-07T14:13:34.963Z,141
2023-03-07T14:14:50.209Z,128
2023-03-07T14:16:06.439Z,153
2023-03-07T14:17:22.684Z,127
2023-03-07T14:18:38.928Z,146
2023-03-07T14:19:55.162Z,186
2023-03-07T14:21:11.410Z,169
2023-03-07T14:22:27.659Z,173
2023-03-07T14:23:43.878Z,145
2023-03-07T14:25:00.121Z,174
2023-03-07T14:26:16.376Z,171
2023-03-07T14:27:32.605Z,165
2023-03-07T14:28:48.854Z,192
2023-03-07T14:30:05.078Z,154
2023-03-07T14:31:20.345Z,179
2023-03-07T14:32:36.581Z,160
2023-03-07T14:33:52.812Z,176
2023-03-07T14:35:09.053Z,225
2023-03-07T14:36:25.290Z,232
2023-03-07T14:37:41.544Z,205
2023-03-07T14:38:57.787Z,185
2023-03-07T14:40:14.023Z,142
2023-03-07T14:41:30.252Z,121
2023-03-07T14:42:46.489Z,125
2023-03-07T14:44:02.726Z,106
2023-03-07T14:45:18.966Z,92
2023-03-07T14:46:35.217Z,104
2023-03-07T14:47:50.474Z,98
2023-03-07T14:49:06.704Z,86
2023-03-07T14:50:22.956Z,77
2023-03-07T14:51:39.194Z,65
2023-03-07T14:52:55.425Z,63
2023-03-07T14:54:11.676Z,56
2023-03-07T14:55:27.905Z,53
2023-03-07T14:56:44.149Z,43
2023-03-07T14:58:00.397Z,42
2023-03-07T14:59:16.626Z,35
2023-03-07T15:00:32.875Z,44
2023-03-07T15:01:49.114Z,53
2023-03-07T15:03:05.352Z,65
2023-03-07T15:04:20.599Z,55
2023-03-07T15:05:36.841Z,48
2023-03-07T15:06:53.083Z,72
2023-03-07T15:08:09.333Z,68
2023-03-07T15:09:25.562Z,50
2023-03-07T15:10:41.816Z,46
2023-03-07T15:11:58.032Z,37
2023-03-07T15:13:14.282Z,51
2023-03-07T15:14:30.514Z,37
2023-03-07T15:15:46.756Z,36
2023-03-07T15:17:03.003Z,37
2023-03-07T15:18:19.232Z,46
2023-03-07T15:19:35.476Z,53
2023-03-07T15:20:50.741Z,66
2023-03-07T15:22:06.976Z,57
2023-03-07T15:23:23.221Z,43
2023-03-07T15:24:39.467Z,49
2023-03-07T15:25:55.703Z,46
2023-03-07T15:27:11.932Z,50
2023-03-07T15:28:28.186Z,40
2023-03-07T15:29:44.418Z,40
2023-03-07T15:31:00.650Z,50
2023-03-07T15:32:16.902Z,54
2023-03-07T15:33:33.128Z,49
2023-03-07T15:34:49.367Z,38
2023-03-07T15:36:05.626Z,75
2023-03-07T15:37:20.868Z,57
2023-03-07T15:38:37.104Z,47
2023-03-07T15:39:53.360Z,42
2023-03-07T15:41:09.599Z,48
2023-03-07T15:42:25.835Z,70
2023-03-07T15:43:42.072Z,49
2023-03-07T15:44:57.323Z,55
2023-03-07T15:46:13.583Z,57
2023-03-07T15:47:29.808Z,43
2023-03-07T15:48:46.051Z,60
2023-03-07T15:50:02.288Z,55
2023-03-07T15:51:18.531Z,61
2023-03-07T15:52:34.778Z,46
2023-03-07T15:53:51.000Z,37
2023-03-07T15:55:07.250Z,25
2023-03-07T15:56:23.491Z,16
2023-03-07T15:57:39.725Z,44
2023-03-07T15:58:55.963Z,51
2023-03-07T16:00:12.217Z,50
2023-03-07T16:01:27.464Z,35
2023-03-07T16:02:43.700Z,34
2023-03-07T16:03:59.943Z,46
2023-03-07T16:05:16.197Z,38
2023-03-07T16:06:32.424Z,38
2023-03-07T16:07:48.659Z,40
2023-03-07T16:09:04.912Z,38
2023-03-07T16:10:21.145Z,29
2023-03-07T16:11:37.400Z,36
2023-03-07T16:12:53.634Z,25
2023-03-07T16:14:09.879Z,29
2023-03-07T16:15:26.101Z,33
2023-03-07T16:16:42.344Z,34
2023-03-07T16:17:57.611Z,25
2023-03-07T16:19:13.852Z,27
2023-03-07T16:20:30.076Z,34
2023-03-07T16:21:46.315Z,29
2023-03-07T16:23:02.564Z,25
2023-03-07T16:24:18.796Z,30
2023-03-07T16:25:35.043Z,28
2023-03-07T16:26:51.294Z,18
2023-03-07T16:28:07.522Z,27
2023-03-07T16:29:23.761Z,33
2023-03-07T16:30:40.009Z,26
2023-03-07T16:31:56.241Z,27
2023-03-07T16:33:12.489Z,23
2023-03-07T16:34:27.747Z,23
2023-03-07T16:35:43.977Z,24
2023-03-07T16:37:00.222Z,18
2023-03-07T16:38:16.463Z,20
2023-03-07T16:39:32.699Z,18
2023-03-07T16:40:48.951Z,15
2023-03-07T16:42:05.186Z,13
2023-03-07T16:43:21.419Z,12
2023-03-07T16:44:37.653Z,11
2023-03-07T16:45:53.892Z,15
2023-03-07T16:47:10.132Z,9
2023-03-07T16:48:26.372Z,9
2023-03-07T16:49:42.619Z,9
2023-03-07T16:50:57.868Z,12
2023-03-07T16:52:14.120Z,8
2023-03-07T16:53:30.352Z,6
2023-03-07T16:54:46.603Z,4
2023-03-07T16:56:02.830Z,8
2023-03-07T16:57:19.077Z,4
2023-03-07T16:58:35.309Z,3
2023-03-07T16:59:51.550Z,5
2023-03-07T17:01:07.798Z,5
2023-03-07T17:02:24.036Z,3
2023-03-07T17:03:40.272Z,4
2023-03-07T17:04:56.510Z,3
2023-03-07T17:06:12.757Z,3
2023-03-07T17:07:28.010Z,1
2023-03-07T17:08:44.253Z,1
2023-03-07T17:10:00.494Z,1
2023-03-07T17:11:16.738Z,2
2023-03-07T17:12:32.992Z,2
2023-03-07T17:13:49.287Z,0
2023-03-07T17:15:05.517Z,1
2023-03-07T17:16:21.764Z,1
2023-03-07T17:17:37.991Z,1
2023-03-07T17:18:54.289Z,0
2023-03-07T17:20:10.589Z,0
2023-03-07T17:21:26.873Z,0
2023-03-07T17:22:43.185Z,0
2023-03-07T17:23:58.484Z,0
2023-03-07T17:25:14.787Z,0
2023-03-07T17:26:31.069Z,0
2023-03-07T17:27:47.375Z,0
2023-03-07T17:29:03.656Z,0
2023-03-07T17:30:19.965Z,0
2023-03-07T17:31:36.245Z,0
2023-03-07T17:32:52.546Z,0
2023-03-07T17:34:08.845Z,0
2023-03-07T17:35:25.146Z,0
2023-03-07T17:36:41.422Z,0
2023-03-07T17:37:57.726Z,0
2023-03-07T17:39:14.009Z,0
2023-03-07T17:40:29.331Z,0
2023-03-07T17:41:45.624Z,0
2023-03-07T17:43:01.922Z,0
2023-03-07T17:44:18.201Z,0
2023-03-07T17:45:34.512Z,0
2023-03-07T17:46:50.787Z,0
2023-03-07T17:48:07.087Z,0
2023-03-07T17:49:23.393Z,0
2023-03-07T17:50:39.671Z,0
2023-03-07T17:51:55.979Z,0
2023-03-07T17:53:12.268Z,0
2023-03-07T17:54:28.565Z,0
2023-03-07T17:55:44.846Z,0
2023-03-07T17:57:00.175Z,0
2023-03-07T17:58:16.470Z,0
2023-03-07T17:59:32.755Z,0
2023-03-07T18:00:49.039Z,0
2023-03-07T18:02:05.342Z,0
2023-03-07T18:03:21.629Z,0
2023-03-07T18:04:37.928Z,0
2023-03-07T18:05:54.217Z,0
2023-03-07T18:07:10.514Z,0
2023-03-07T18:08:26.808Z,0